createdAt,value
2023-04-23T00:01:20.615Z,10.90
2023-04-23T00:03:50.265Z,10.90
2023-04-23T00:06:17.974Z,10.90
2023-04-23T00:08:45.400Z,10.80
2023-04-23T00:11:12.876Z,10.90
2023-04-23T00:13:40.185Z,10.80
2023-04-23T00:16:08.328Z,10.80
2023-04-23T00:18:35.361Z,10.70
2023-04-23T00:21:02.465Z,10.80
2023-04-23T00:23:29.539Z,10.70
2023-04-23T00:25:56.774Z,10.60
2023-04-23T00:28:23.836Z,10.60
2023-04-23T00:30:51.173Z,10.60
2023-04-23T00:33:18.345Z,10.50
2023-04-23T00:35:45.652Z,10.50
2023-04-23T00:38:12.716Z,10.50
2023-04-23T00:40:40.022Z,10.50
2023-04-23T00:43:09.872Z,10.50
2023-04-23T00:45:37.230Z,10.50
2023-04-23T00:48:04.703Z,10.40
2023-04-23T00:50:32.036Z,10.40
2023-04-23T00:52:59.192Z,10.30
2023-04-23T00:55:26.333Z,10.40
2023-04-23T00:57:54.354Z,10.30
2023-04-23T01:00:21.832Z,10.30
2023-04-23T01:02:50.705Z,10.30
2023-04-23T01:05:18.393Z,10.20
2023-04-23T01:07:46.818Z,10.20
2023-04-23T01:10:14.083Z,10.20
2023-04-23T01:12:42.350Z,10.20
2023-04-23T01:15:10.266Z,10.10
2023-04-23T01:17:38.546Z,10.10
2023-04-23T01:20:06.874Z,10.10
2023-04-23T01:22:37.030Z,10.00
2023-04-23T01:25:04.821Z,10.00
2023-04-23T01:27:32.663Z,10.00
2023-04-23T01:30:03.859Z,10.00
2023-04-23T01:32:32.399Z,9.90
2023-04-23T01:35:00.343Z,9.90
2023-04-23T01:37:28.351Z,9.90
2023-04-23T01:39:55.399Z,9.90
2023-04-23T01:42:23.607Z,9.80
2023-04-23T01:44:53.654Z,9.80
2023-04-23T01:47:21.301Z,9.80
2023-04-23T01:49:48.540Z,9.80
2023-04-23T01:52:15.643Z,9.80
2023-04-23T01:54:42.927Z,9.70
2023-04-23T01:57:10.875Z,9.70
2023-04-23T01:59:38.798Z,9.70
2023-04-23T02:02:10.609Z,9.70
2023-04-23T02:04:41.598Z,9.60
2023-04-23T02:07:09.619Z,9.60
2023-04-23T02:09:37.087Z,9.60
2023-04-23T02:12:05.592Z,9.60
2023-04-23T02:14:32.749Z,9.60
2023-04-23T02:16:59.723Z,9.50
2023-04-23T02:19:27.966Z,9.50
2023-04-23T02:21:55.501Z,9.50
2023-04-23T02:24:22.631Z,9.40
2023-04-23T02:26:49.640Z,9.40
2023-04-23T02:29:16.654Z,9.40
2023-04-23T02:31:43.757Z,9.40
2023-04-23T02:34:10.831Z,9.40
2023-04-23T02:36:38.373Z,9.40
2023-04-23T02:39:05.489Z,9.30
2023-04-23T02:41:32.591Z,9.30
2023-04-23T02:43:59.612Z,9.30
2023-04-23T02:46:28.496Z,9.30
2023-04-23T02:48:55.584Z,9.20
2023-04-23T02:51:22.709Z,9.20
2023-04-23T02:53:49.928Z,9.20
2023-04-23T02:56:17.004Z,9.20
2023-04-23T02:58:44.242Z,9.20
2023-04-23T03:01:11.418Z,9.10
2023-04-23T03:03:38.826Z,9.10
2023-04-23T03:06:06.942Z,9.10
2023-04-23T03:08:34.082Z,9.00
2023-04-23T03:11:01.146Z,9.00
2023-04-23T03:13:28.432Z,9.00
2023-04-23T03:15:56.082Z,9.00
2023-04-23T03:18:23.180Z,9.00
2023-04-23T03:20:53.218Z,9.00
2023-04-23T03:23:20.387Z,9.00
2023-04-23T03:25:48.181Z,9.00
2023-04-23T03:28:15.197Z,9.00
2023-04-23T03:30:43.063Z,9.00
2023-04-23T03:33:10.252Z,9.00
2023-04-23T03:35:37.745Z,9.00
2023-04-23T03:38:09.522Z,9.00
2023-04-23T03:40:37.305Z,9.00
2023-04-23T03:43:06.861Z,9.00
2023-04-23T03:45:53.241Z,9.00
2023-04-23T03:48:21.671Z,8.90
2023-04-23T03:50:48.764Z,8.90
2023-04-23T03:53:46.153Z,8.90
2023-04-23T03:56:35.270Z,8.80
2023-04-23T03:59:16.094Z,8.80
2023-04-23T04:01:44.660Z,8.90
2023-04-23T04:04:12.072Z,8.80
2023-04-23T04:06:39.319Z,8.80
2023-04-23T04:09:08.150Z,8.80
2023-04-23T04:11:35.684Z,8.80
2023-04-23T04:14:02.712Z,8.80
2023-04-23T04:16:29.844Z,8.90
2023-04-23T04:18:57.038Z,8.90
2023-04-23T04:21:24.100Z,8.80
2023-04-23T04:23:51.199Z,8.90
2023-04-23T04:26:18.868Z,8.90
2023-04-23T04:28:46.528Z,8.90
2023-04-23T04:31:16.101Z,9.00
2023-04-23T04:33:43.451Z,9.00
2023-04-23T04:36:10.619Z,9.00
2023-04-23T04:38:38.016Z,9.00
2023-04-23T04:41:05.226Z,9.10
2023-04-23T04:43:33.063Z,9.10
2023-04-23T04:46:00.519Z,9.10
2023-04-23T04:48:27.611Z,9.20
2023-04-23T04:50:54.686Z,9.20
2023-04-23T04:53:21.861Z,9.30
2023-04-23T04:55:48.937Z,9.30
2023-04-23T04:58:15.974Z,9.30
2023-04-23T05:00:43.424Z,9.40
2023-04-23T05:03:13.362Z,9.50
2023-04-23T05:05:41.268Z,9.50
2023-04-23T05:08:08.882Z,9.50
2023-04-23T05:10:36.220Z,9.60
2023-04-23T05:13:03.512Z,9.70
2023-04-23T05:15:30.828Z,9.80
2023-04-23T05:17:58.136Z,9.80
2023-04-23T05:20:25.422Z,9.80
2023-04-23T05:22:52.483Z,9.90
2023-04-23T05:25:19.527Z,10.00
2023-04-23T05:27:46.508Z,10.10
2023-04-23T05:30:13.684Z,10.20
2023-04-23T05:32:40.876Z,10.30
2023-04-23T05:35:08.490Z,10.40
2023-04-23T05:37:35.830Z,10.50
2023-04-23T05:40:03.032Z,10.50
2023-04-23T05:42:30.057Z,10.60
2023-04-23T05:44:57.046Z,10.70
2023-04-23T05:47:24.068Z,10.80
2023-04-23T05:49:51.104Z,10.80
2023-04-23T05:52:19.173Z,10.90
2023-04-23T05:54:46.374Z,11.10
2023-04-23T05:57:13.428Z,11.20
2023-04-23T05:59:40.552Z,11.30
2023-04-23T06:02:09.429Z,11.50
2023-04-23T06:04:37.240Z,11.60
2023-04-23T06:07:04.707Z,11.80
2023-04-23T06:09:31.819Z,12.00
2023-04-23T06:11:58.923Z,12.10
2023-04-23T06:14:25.946Z,12.30
2023-04-23T06:16:52.980Z,12.50
2023-04-23T06:19:20.050Z,12.70
2023-04-23T06:21:47.206Z,12.90
2023-04-23T06:24:14.373Z,13.10
2023-04-23T06:26:41.341Z,13.30
2023-04-23T06:29:14.317Z,13.40
2023-04-23T06:32:03.580Z,13.60
2023-04-23T06:34:32.053Z,13.80
2023-04-23T06:36:59.243Z,14.00
2023-04-23T06:39:26.244Z,14.10
2023-04-23T06:41:53.410Z,14.30
2023-04-23T06:44:33.434Z,14.50
2023-04-23T06:47:00.457Z,14.60
2023-04-23T06:49:27.595Z,14.80
2023-04-23T06:51:56.982Z,15.00
2023-04-23T06:54:24.820Z,15.00
2023-04-23T06:56:52.442Z,15.10
2023-04-23T06:59:19.820Z,15.30
2023-04-23T07:01:50.705Z,15.30
2023-04-23T07:04:17.864Z,15.50
2023-04-23T07:06:45.101Z,15.60
2023-04-23T07:09:12.881Z,15.80
2023-04-23T07:11:40.561Z,15.90
2023-04-23T07:14:07.655Z,16.00
2023-04-23T07:16:34.916Z,16.20
2023-04-23T07:19:02.508Z,16.40
2023-04-23T07:21:29.771Z,16.60
2023-04-23T07:24:00.874Z,16.80
2023-04-23T07:26:28.152Z,16.90
2023-04-23T07:28:55.441Z,16.90
2023-04-23T07:31:23.951Z,17.00
2023-04-23T07:33:51.093Z,17.10
2023-04-23T07:36:18.282Z,17.10
2023-04-23T07:38:45.364Z,17.20
2023-04-23T07:41:12.652Z,17.40
2023-04-23T07:43:41.147Z,17.50
2023-04-23T07:46:08.697Z,17.50
2023-04-23T07:48:36.034Z,17.70
2023-04-23T07:51:03.343Z,17.70
2023-04-23T07:53:30.726Z,17.90
2023-04-23T07:55:58.110Z,18.00
2023-04-23T07:58:25.843Z,18.10
2023-04-23T08:00:53.140Z,18.10
2023-04-23T08:03:20.505Z,18.10
2023-04-23T08:05:48.013Z,18.20
2023-04-23T08:08:15.150Z,18.40
2023-04-23T08:10:42.323Z,18.40
2023-04-23T08:13:09.376Z,18.50
2023-04-23T08:15:36.569Z,18.70
2023-04-23T08:18:04.643Z,18.70
2023-04-23T08:20:34.686Z,18.90
2023-04-23T08:23:01.911Z,19.10
2023-04-23T08:25:29.010Z,19.10
2023-04-23T08:27:56.173Z,19.10
2023-04-23T08:30:23.413Z,19.10
2023-04-23T08:32:54.043Z,19.10
2023-04-23T08:35:22.272Z,19.20
2023-04-23T08:37:49.438Z,19.40
2023-04-23T08:40:17.141Z,19.30
2023-04-23T08:42:55.460Z,19.40
2023-04-23T08:45:23.462Z,19.40
2023-04-23T08:47:51.024Z,19.50
2023-04-23T08:50:20.145Z,19.50
2023-04-23T08:52:53.913Z,19.60
2023-04-23T08:55:22.486Z,19.70
2023-04-23T08:57:50.620Z,19.80
2023-04-23T09:00:20.369Z,19.90
2023-04-23T09:02:49.562Z,19.80
2023-04-23T09:05:17.032Z,20.00
2023-04-23T09:07:44.602Z,20.10
2023-04-23T09:10:13.709Z,20.20
2023-04-23T09:12:43.938Z,20.20
2023-04-23T09:15:11.942Z,20.20
2023-04-23T09:17:41.675Z,20.30
2023-04-23T09:20:11.916Z,20.20
2023-04-23T09:22:47.565Z,20.20
2023-04-23T09:25:21.358Z,20.30
2023-04-23T09:27:52.270Z,20.50
2023-04-23T09:30:19.815Z,20.50
2023-04-23T09:32:47.706Z,20.50
2023-04-23T09:35:16.993Z,20.50
2023-04-23T09:37:49.112Z,20.60
2023-04-23T09:40:17.656Z,20.70
2023-04-23T09:42:50.209Z,20.90
2023-04-23T09:45:17.588Z,20.90
2023-04-23T09:47:55.931Z,20.90
2023-04-23T09:50:33.430Z,20.70
2023-04-23T09:53:00.635Z,20.80
2023-04-23T09:55:36.041Z,20.90
2023-04-23T09:58:04.894Z,21.00
2023-04-23T10:00:38.174Z,21.10
2023-04-23T10:03:07.950Z,21.20
2023-04-23T10:06:00.476Z,21.30
2023-04-23T10:08:29.045Z,21.40
2023-04-23T10:11:06.602Z,21.30
2023-04-23T10:13:43.879Z,21.20
2023-04-23T10:16:21.592Z,20.50
2023-04-23T10:18:52.179Z,20.90
2023-04-23T10:21:20.849Z,21.20
2023-04-23T10:23:50.149Z,21.30
2023-04-23T10:26:20.216Z,21.60
2023-04-23T10:28:49.296Z,21.50
2023-04-23T10:31:17.972Z,21.70
2023-04-23T10:33:58.380Z,21.80
2023-04-23T10:36:27.728Z,21.80
2023-04-23T10:38:58.970Z,21.80
2023-04-23T10:41:36.554Z,21.80
2023-04-23T10:44:11.200Z,22.00
2023-04-23T10:46:39.809Z,21.80
2023-04-23T10:49:15.219Z,22.00
2023-04-23T10:54:17.132Z,22.20
2023-04-23T10:56:44.380Z,22.20
2023-04-23T10:59:21.820Z,22.10
2023-04-23T11:01:50.909Z,22.20
2023-04-23T11:04:29.679Z,22.10
2023-04-23T11:06:58.912Z,21.50
2023-04-23T11:09:35.169Z,21.40
2023-04-23T11:12:08.024Z,21.40
2023-04-23T11:14:48.072Z,21.90
2023-04-23T11:17:16.860Z,21.90
2023-04-23T11:20:03.899Z,21.40
2023-04-23T11:22:39.029Z,21.10
2023-04-23T11:25:11.064Z,20.80
2023-04-23T11:27:43.557Z,20.70
2023-04-23T11:30:16.379Z,20.70
2023-04-23T11:32:49.650Z,20.70
2023-04-23T11:35:21.602Z,20.80
2023-04-23T11:37:49.609Z,21.60
2023-04-23T11:40:19.707Z,21.70
2023-04-23T11:42:48.387Z,21.40
2023-04-23T11:45:29.334Z,21.20
2023-04-23T11:47:58.288Z,21.20
2023-04-23T11:50:31.097Z,21.50
2023-04-23T11:52:58.630Z,21.40
2023-04-23T11:55:26.540Z,21.30
2023-04-23T11:57:53.600Z,21.10
2023-04-23T12:00:26.524Z,21.00
2023-04-23T12:03:02.277Z,20.90
2023-04-23T12:05:37.591Z,20.80
2023-04-23T12:08:11.770Z,21.00
2023-04-23T12:10:43.250Z,21.90
2023-04-23T12:13:17.269Z,21.70
2023-04-23T12:15:56.661Z,21.50
2023-04-23T12:18:39.408Z,21.60
2023-04-23T12:21:11.707Z,21.30
2023-04-23T12:23:40.498Z,21.80
2023-04-23T12:26:12.030Z,22.30
2023-04-23T12:28:52.669Z,22.50
2023-04-23T12:31:21.857Z,22.60
2023-04-23T12:34:17.090Z,22.20
2023-04-23T12:36:49.134Z,22.30
2023-04-23T12:39:29.980Z,22.60
2023-04-23T12:42:03.105Z,22.80
2023-04-23T12:44:31.300Z,22.80
2023-04-23T12:47:00.269Z,22.90
2023-04-23T12:49:28.744Z,22.70
2023-04-23T12:52:01.614Z,22.40
2023-04-23T12:54:33.837Z,22.20
2023-04-23T12:57:04.908Z,22.60
2023-04-23T12:59:32.460Z,22.80
2023-04-23T13:02:03.266Z,22.90
2023-04-23T13:04:32.753Z,22.90
2023-04-23T13:07:00.226Z,23.00
2023-04-23T13:09:28.899Z,23.20
2023-04-23T13:11:56.194Z,23.10
2023-04-23T13:14:23.718Z,23.20
2023-04-23T13:16:51.141Z,22.70
2023-04-23T13:19:18.186Z,22.40
2023-04-23T13:21:45.676Z,22.70
2023-04-23T13:24:12.809Z,22.90
2023-04-23T13:26:40.011Z,22.70
2023-04-23T13:29:07.160Z,22.80
2023-04-23T13:31:34.293Z,23.10
2023-04-23T13:34:03.173Z,23.30
2023-04-23T13:36:30.689Z,23.00
2023-04-23T13:38:57.868Z,22.90
2023-04-23T13:41:24.975Z,22.60
2023-04-23T13:43:52.871Z,22.00
2023-04-23T13:46:20.445Z,22.10
2023-04-23T13:48:47.525Z,22.40
2023-04-23T13:51:33.337Z,22.60
2023-04-23T13:54:01.790Z,22.30
2023-04-23T13:56:30.282Z,22.60
2023-04-23T13:59:18.268Z,22.80
2023-04-23T14:01:49.818Z,22.80
2023-04-23T14:04:17.819Z,23.00
2023-04-23T14:06:45.086Z,23.10
2023-04-23T14:09:12.195Z,23.00
2023-04-23T14:11:40.595Z,23.00
2023-04-23T14:14:07.962Z,23.00
2023-04-23T14:16:35.574Z,22.90
2023-04-23T14:19:02.893Z,22.90
2023-04-23T14:21:31.339Z,23.00
2023-04-23T14:24:08.057Z,23.00
2023-04-23T14:26:47.894Z,22.80
2023-04-23T14:29:46.598Z,22.80
2023-04-23T14:32:14.317Z,22.70
2023-04-23T14:34:41.581Z,22.60
2023-04-23T14:37:08.723Z,22.60
2023-04-23T14:39:35.801Z,22.50
2023-04-23T14:42:02.965Z,22.60
2023-04-23T14:44:29.990Z,22.40
2023-04-23T14:46:57.201Z,22.00
2023-04-23T14:49:24.331Z,21.80
2023-04-23T14:51:54.632Z,21.90
2023-04-23T14:54:22.512Z,22.00
2023-04-23T14:56:50.760Z,22.10
2023-04-23T14:59:17.846Z,22.10
2023-04-23T15:01:45.235Z,22.10
2023-04-23T15:04:13.099Z,22.20
2023-04-23T15:06:43.032Z,22.10
2023-04-23T15:09:10.539Z,22.10
2023-04-23T15:11:39.191Z,22.10
2023-04-23T15:14:38.776Z,22.10
2023-04-23T15:17:06.037Z,22.10
2023-04-23T15:19:33.113Z,22.10
2023-04-23T15:22:00.220Z,22.10
2023-04-23T15:24:27.536Z,22.00
2023-04-23T15:26:55.187Z,21.90
2023-04-23T15:29:24.503Z,22.00
2023-04-23T15:31:57.962Z,21.90
2023-04-23T15:34:25.288Z,21.90
2023-04-23T15:36:52.558Z,21.90
2023-04-23T15:39:19.565Z,22.00
2023-04-23T15:41:46.641Z,21.70
2023-04-23T15:44:13.921Z,21.50
2023-04-23T15:46:41.042Z,21.40
2023-04-23T15:49:08.839Z,21.50
2023-04-23T15:51:37.129Z,21.60
2023-04-23T15:54:08.821Z,21.50
2023-04-23T15:56:37.304Z,21.30
2023-04-23T15:59:04.618Z,21.10
2023-04-23T16:01:31.826Z,21.00
2023-04-23T16:06:29.367Z,20.80
2023-04-23T16:08:56.537Z,20.80
2023-04-23T16:11:27.661Z,20.90
2023-04-23T16:13:57.114Z,20.80
2023-04-23T16:16:24.692Z,20.50
2023-04-23T16:18:52.054Z,20.50
2023-04-23T16:21:19.105Z,20.50
2023-04-23T16:23:46.377Z,20.60
2023-04-23T16:26:13.576Z,20.70
2023-04-23T16:28:41.186Z,20.60
2023-04-23T16:31:08.598Z,20.50
2023-04-23T16:33:35.743Z,20.50
2023-04-23T16:36:03.036Z,20.50
2023-04-23T16:38:30.197Z,20.50
2023-04-23T16:40:57.260Z,20.40
2023-04-23T16:43:24.758Z,20.30
2023-04-23T16:45:52.156Z,20.20
2023-04-23T16:48:20.370Z,20.10
2023-04-23T16:50:48.460Z,19.90
2023-04-23T16:53:15.594Z,19.90
2023-04-23T16:55:42.885Z,19.90
2023-04-23T16:58:10.721Z,19.80
2023-04-23T17:00:37.789Z,19.70
2023-04-23T17:03:05.185Z,19.60
2023-04-23T17:05:34.829Z,19.50
2023-04-23T17:08:01.907Z,19.40
2023-04-23T17:10:29.127Z,19.30
2023-04-23T17:12:56.966Z,19.20
2023-04-23T17:15:31.946Z,19.10
2023-04-23T17:18:00.289Z,19.00
2023-04-23T17:20:28.856Z,18.90
2023-04-23T17:22:56.467Z,18.80
2023-04-23T17:25:24.356Z,18.70
2023-04-23T17:27:52.102Z,18.70
2023-04-23T17:30:19.965Z,18.60
2023-04-23T17:32:47.678Z,18.50
2023-04-23T17:35:15.059Z,18.40
2023-04-23T17:37:42.820Z,18.40
2023-04-23T17:40:10.990Z,18.30
2023-04-23T17:42:39.745Z,18.20
2023-04-23T17:45:07.747Z,18.10
2023-04-23T17:47:35.365Z,18.00
2023-04-23T17:50:03.256Z,18.00
2023-04-23T17:52:31.044Z,17.90
2023-04-23T17:55:00.429Z,17.80
2023-04-23T17:57:28.143Z,17.80
2023-04-23T17:59:56.132Z,17.70
2023-04-23T18:02:24.329Z,17.70
2023-04-23T18:04:52.351Z,17.60
2023-04-23T18:07:22.939Z,17.60
2023-04-23T18:09:50.777Z,17.50
2023-04-23T18:12:19.152Z,17.40
2023-04-23T18:14:47.160Z,17.40
2023-04-23T18:17:17.495Z,17.40
2023-04-23T18:19:45.296Z,17.30
2023-04-23T18:22:12.586Z,17.20
2023-04-23T18:24:41.177Z,17.20
2023-04-23T18:27:09.151Z,17.10
2023-04-23T18:29:36.884Z,17.10
2023-04-23T18:32:04.756Z,17.00
2023-04-23T18:34:37.660Z,17.00
2023-04-23T18:37:12.784Z,16.90
2023-04-23T18:39:41.068Z,16.90
2023-04-23T18:42:08.638Z,16.80
2023-04-23T18:44:36.546Z,16.80
2023-04-23T18:47:04.099Z,16.70
2023-04-23T18:49:44.553Z,16.70
2023-04-23T18:52:12.777Z,16.60
2023-04-23T18:54:41.486Z,16.50
2023-04-23T18:57:09.582Z,16.50
2023-04-23T18:59:38.423Z,16.50
2023-04-23T19:02:16.418Z,16.40
2023-04-23T19:04:49.281Z,16.40
2023-04-23T19:07:17.515Z,16.30
2023-04-23T19:09:45.176Z,16.30
2023-04-23T19:12:13.084Z,16.20
2023-04-23T19:14:40.111Z,16.20
2023-04-23T19:17:08.129Z,16.10
2023-04-23T19:19:38.675Z,16.00
2023-04-23T19:22:08.014Z,16.00
2023-04-23T19:24:36.034Z,15.90
2023-04-23T19:27:06.332Z,15.90
2023-04-23T19:29:33.633Z,15.90
2023-04-23T19:32:01.367Z,15.80
2023-04-23T19:34:29.131Z,15.70
2023-04-23T19:37:00.229Z,15.80
2023-04-23T19:39:30.804Z,15.70
2023-04-23T19:41:58.699Z,15.60
2023-04-23T19:44:26.168Z,15.60
2023-04-23T19:46:53.654Z,15.50
2023-04-23T19:49:20.684Z,15.50
2023-04-23T19:51:49.643Z,15.50
2023-04-23T19:54:17.498Z,15.40
2023-04-23T19:56:45.398Z,15.40
2023-04-23T19:59:21.360Z,15.30
2023-04-23T20:01:55.219Z,15.30
2023-04-23T20:04:23.145Z,15.30
2023-04-23T20:06:50.930Z,15.30
2023-04-23T20:09:18.510Z,15.20
2023-04-23T20:11:46.593Z,15.20
2023-04-23T20:14:15.394Z,15.10
2023-04-23T20:16:42.917Z,15.10
2023-04-23T20:19:11.441Z,15.10
2023-04-23T20:21:39.888Z,15.10
2023-04-23T20:24:08.578Z,15.00
2023-04-23T20:26:37.256Z,15.00
2023-04-23T20:29:05.497Z,14.90
2023-04-23T20:31:33.329Z,14.90
2023-04-23T20:34:01.041Z,15.00
2023-04-23T20:36:34.723Z,14.90
2023-04-23T20:39:05.659Z,14.80
2023-04-23T20:41:37.063Z,14.80
2023-04-23T20:44:09.205Z,14.80
2023-04-23T20:46:37.005Z,14.70
2023-04-23T20:49:04.605Z,14.70
2023-04-23T20:51:35.537Z,14.70
2023-04-23T20:54:03.013Z,14.70
2023-04-23T20:56:30.637Z,14.60
2023-04-23T20:58:58.009Z,14.60
2023-04-23T21:01:25.736Z,14.60
2023-04-23T21:03:54.000Z,14.60
2023-04-23T21:06:22.246Z,14.60
2023-04-23T21:08:49.772Z,14.60
2023-04-23T21:11:18.918Z,14.50
2023-04-23T21:13:46.853Z,14.60
2023-04-23T21:16:14.681Z,14.50
2023-04-23T21:18:42.400Z,14.50
2023-04-23T21:21:09.561Z,14.40
2023-04-23T21:23:36.576Z,14.50
2023-04-23T21:26:04.064Z,14.50
2023-04-23T21:28:32.054Z,14.40
2023-04-23T21:31:07.825Z,14.40
2023-04-23T21:33:35.017Z,14.40
2023-04-23T21:36:02.104Z,14.40
2023-04-23T21:38:29.171Z,14.40
2023-04-23T21:40:56.234Z,14.40
2023-04-23T21:43:24.498Z,14.40
2023-04-23T21:45:51.852Z,14.40
2023-04-23T21:48:18.890Z,14.40
2023-04-23T21:50:46.971Z,14.40
2023-04-23T21:53:14.530Z,14.40
2023-04-23T21:55:41.549Z,14.40
2023-04-23T21:58:17.298Z,14.40
2023-04-23T22:00:45.925Z,14.40
2023-04-23T22:03:15.589Z,14.40
2023-04-23T22:05:52.369Z,14.40
2023-04-23T22:08:19.624Z,14.50
2023-04-23T22:10:46.745Z,14.40
2023-04-23T22:13:14.820Z,14.50
2023-04-23T22:15:42.319Z,14.40
2023-04-23T22:18:09.383Z,14.50
2023-04-23T22:20:39.219Z,14.40
2023-04-23T22:23:06.593Z,14.50
2023-04-23T22:25:33.630Z,14.40
2023-04-23T22:28:00.760Z,14.50
2023-04-23T22:30:27.912Z,14.40
2023-04-23T22:32:54.923Z,14.40
2023-04-23T22:35:22.143Z,14.40
2023-04-23T22:37:49.275Z,14.40
2023-04-23T22:40:16.597Z,14.40
2023-04-23T22:42:43.888Z,14.40
2023-04-23T22:45:11.436Z,14.40
2023-04-23T22:47:38.643Z,14.40
2023-04-23T22:50:06.423Z,14.40
2023-04-23T22:52:33.831Z,14.40
2023-04-23T22:55:01.024Z,14.40
2023-04-23T22:57:28.146Z,14.40
2023-04-23T22:59:55.268Z,14.40
2023-04-23T23:02:22.459Z,14.40
2023-04-23T23:04:49.548Z,14.40
2023-04-23T23:07:16.555Z,14.40
2023-04-23T23:09:43.953Z,14.40
2023-04-23T23:12:11.210Z,14.40
2023-04-23T23:14:38.341Z,14.30
2023-04-23T23:17:08.125Z,14.30
2023-04-23T23:19:35.243Z,14.30
2023-04-23T23:22:02.305Z,14.30
2023-04-23T23:24:29.366Z,14.20
2023-04-23T23:26:56.707Z,14.20
2023-04-23T23:29:23.762Z,14.20
2023-04-23T23:31:51.292Z,14.20
2023-04-23T23:34:18.438Z,14.20
2023-04-23T23:36:45.564Z,14.10
2023-04-23T23:39:13.404Z,14.10
2023-04-23T23:41:40.439Z,14.10
2023-04-23T23:44:07.426Z,14.10
2023-04-23T23:46:35.165Z,14.00
2023-04-23T23:49:02.269Z,14.00
2023-04-23T23:51:29.317Z,13.90
2023-04-23T23:53:56.358Z,13.80
2023-04-23T23:56:23.428Z,13.80
2023-04-23T23:58:50.895Z,13.80
